Mc Kittrick, California
Current Conditions -  °F | °C
As of 7:54 AM on Saturday 22 Nov 2014 (Local Time) from KBFL Reporting Station
Haze Haze  
Wind Chill: 50°   Ceiling: Unl
Heat Index: 50°   Visibility: 3mi
Dew Point: 45°   Wind: 5mph
Humidity: 83%   Direction: 140°SE
Pressure: 30.18"   Gusts: NA
Location:  35.4014°N, 119.705°W
Report Text: KBFL 221554Z 14004KT 3SM HZ CLR 10/07 A3018 RMK AO2 SLP217 T01000072
Loading
Personal Weather Stations






























Interactive Weather Map New forecast layout! Learn more

10-Day Weather Forecast

Advertisements
Track Severe Weather on mobile